sensor_id;sensor_type;location;lat;lon;timestamp;temperature;humidity
65036;DHT22;51603;49.300;8.880;2022-07-29T00:02:08;21.50;79.70
65036;DHT22;51603;49.300;8.880;2022-07-29T00:04:35;21.50;80.90
65036;DHT22;51603;49.300;8.880;2022-07-29T00:07:01;21.40;81.90
65036;DHT22;51603;49.300;8.880;2022-07-29T00:09:27;21.30;82.90
65036;DHT22;51603;49.300;8.880;2022-07-29T00:11:53;21.30;83.70
65036;DHT22;51603;49.300;8.880;2022-07-29T00:14:20;21.20;84.70
65036;DHT22;51603;49.300;8.880;2022-07-29T00:16:45;21.20;85.90
65036;DHT22;51603;49.300;8.880;2022-07-29T00:19:11;21.10;87.40
65036;DHT22;51603;49.300;8.880;2022-07-29T00:21:36;21.00;88.00
65036;DHT22;51603;49.300;8.880;2022-07-29T00:24:02;21.00;89.40
65036;DHT22;51603;49.300;8.880;2022-07-29T00:26:27;20.90;90.20
65036;DHT22;51603;49.300;8.880;2022-07-29T00:28:58;20.90;90.70
65036;DHT22;51603;49.300;8.880;2022-07-29T00:31:23;20.90;91.30
65036;DHT22;51603;49.300;8.880;2022-07-29T00:33:48;20.90;91.70
65036;DHT22;51603;49.300;8.880;2022-07-29T00:36:14;20.80;92.10
65036;DHT22;51603;49.300;8.880;2022-07-29T00:38:40;20.80;92.50
65036;DHT22;51603;49.300;8.880;2022-07-29T00:41:09;20.80;93.00
65036;DHT22;51603;49.300;8.880;2022-07-29T00:43:34;20.70;93.30
65036;DHT22;51603;49.300;8.880;2022-07-29T00:46:00;20.70;94.00
65036;DHT22;51603;49.300;8.880;2022-07-29T00:48:26;20.70;94.70
65036;DHT22;51603;49.300;8.880;2022-07-29T00:50:51;20.70;95.20
65036;DHT22;51603;49.300;8.880;2022-07-29T00:53:17;20.70;95.90
65036;DHT22;51603;49.300;8.880;2022-07-29T00:55:42;20.60;95.90
65036;DHT22;51603;49.300;8.880;2022-07-29T00:58:08;20.60;96.40
65036;DHT22;51603;49.300;8.880;2022-07-29T01:03:55;20.60;96.90
65036;DHT22;51603;49.300;8.880;2022-07-29T01:06:21;20.60;97.40
65036;DHT22;51603;49.300;8.880;2022-07-29T01:08:48;20.60;98.00
65036;DHT22;51603;49.300;8.880;2022-07-29T01:11:15;20.60;97.90
65036;DHT22;51603;49.300;8.880;2022-07-29T01:13:43;20.60;97.70
65036;DHT22;51603;49.300;8.880;2022-07-29T01:16:23;20.60;98.20
65036;DHT22;51603;49.300;8.880;2022-07-29T01:18:54;20.60;98.30
65036;DHT22;51603;49.300;8.880;2022-07-29T01:21:44;20.50;98.50
65036;DHT22;51603;49.300;8.880;2022-07-29T01:24:30;20.50;98.80
65036;DHT22;51603;49.300;8.880;2022-07-29T01:27:32;20.50;99.10
65036;DHT22;51603;49.300;8.880;2022-07-29T01:30:04;20.40;99.40
65036;DHT22;51603;49.300;8.880;2022-07-29T01:32:33;20.40;99.70
65036;DHT22;51603;49.300;8.880;2022-07-29T01:35:15;20.40;99.80
65036;DHT22;51603;49.300;8.880;2022-07-29T01:37:50;20.40;99.90
65036;DHT22;51603;49.300;8.880;2022-07-29T01:40:23;20.40;99.90
65036;DHT22;51603;49.300;8.880;2022-07-29T01:42:52;20.30;99.90
65036;DHT22;51603;49.300;8.880;2022-07-29T01:45:41;20.40;99.90
65036;DHT22;51603;49.300;8.880;2022-07-29T01:48:31;20.40;99.90
65036;DHT22;51603;49.300;8.880;2022-07-29T01:53:54;20.30;99.90
65036;DHT22;51603;49.300;8.880;2022-07-29T01:56:21;20.20;99.90
65036;DHT22;51603;49.300;8.880;2022-07-29T01:58:49;20.20;99.90
65036;DHT22;51603;49.300;8.880;2022-07-29T02:01:17;20.10;99.90
65036;DHT22;51603;49.300;8.880;2022-07-29T02:03:45;20.10;99.90
65036;DHT22;51603;49.300;8.880;2022-07-29T02:06:12;20.10;99.90
65036;DHT22;51603;49.300;8.880;2022-07-29T02:08:40;20.00;99.90
65036;DHT22;51603;49.300;8.880;2022-07-29T02:11:08;20.00;99.90
65036;DHT22;51603;49.300;8.880;2022-07-29T02:13:35;20.00;99.90
65036;DHT22;51603;49.300;8.880;2022-07-29T02:16:04;20.00;99.90
65036;DHT22;51603;49.300;8.880;2022-07-29T02:18:31;20.10;99.90
65036;DHT22;51603;49.300;8.880;2022-07-29T02:20:58;20.10;99.90
65036;DHT22;51603;49.300;8.880;2022-07-29T02:23:25;20.00;99.90
65036;DHT22;51603;49.300;8.880;2022-07-29T02:25:53;20.00;99.90
65036;DHT22;51603;49.300;8.880;2022-07-29T02:28:20;20.00;99.90
65036;DHT22;51603;49.300;8.880;2022-07-29T02:30:47;19.90;99.90
65036;DHT22;51603;49.300;8.880;2022-07-29T02:33:16;19.90;99.90
65036;DHT22;51603;49.300;8.880;2022-07-29T02:35:45;19.80;99.90
65036;DHT22;51603;49.300;8.880;2022-07-29T02:38:14;19.80;99.90
65036;DHT22;51603;49.300;8.880;2022-07-29T02:41:01;19.80;99.90
65036;DHT22;51603;49.300;8.880;2022-07-29T02:43:29;19.80;99.90
65036;DHT22;51603;49.300;8.880;2022-07-29T02:45:56;19.80;99.90
65036;DHT22;51603;49.300;8.880;2022-07-29T02:48:41;19.70;99.90
65036;DHT22;51603;49.300;8.880;2022-07-29T02:51:23;19.70;99.90
65036;DHT22;51603;49.300;8.880;2022-07-29T02:53:51;19.80;99.90
65036;DHT22;51603;49.300;8.880;2022-07-29T02:56:24;19.70;99.90
65036;DHT22;51603;49.300;8.880;2022-07-29T02:58:55;19.70;99.90
65036;DHT22;51603;49.300;8.880;2022-07-29T03:01:23;19.70;99.90
65036;DHT22;51603;49.300;8.880;2022-07-29T03:03:51;19.70;99.90
65036;DHT22;51603;49.300;8.880;2022-07-29T03:06:20;19.60;99.90
65036;DHT22;51603;49.300;8.880;2022-07-29T03:08:46;19.70;99.90
65036;DHT22;51603;49.300;8.880;2022-07-29T03:11:13;19.70;99.90
65036;DHT22;51603;49.300;8.880;2022-07-29T03:13:39;19.70;99.90
65036;DHT22;51603;49.300;8.880;2022-07-29T03:16:05;19.70;99.90
65036;DHT22;51603;49.300;8.880;2022-07-29T03:18:32;19.60;99.90
65036;DHT22;51603;49.300;8.880;2022-07-29T03:20:58;19.60;99.90
65036;DHT22;51603;49.300;8.880;2022-07-29T03:23:24;19.60;99.90
65036;DHT22;51603;49.300;8.880;2022-07-29T03:25:51;19.50;99.90
65036;DHT22;51603;49.300;8.880;2022-07-29T03:28:17;19.50;99.90
65036;DHT22;51603;49.300;8.880;2022-07-29T03:30:43;19.50;99.90
65036;DHT22;51603;49.300;8.880;2022-07-29T03:33:08;19.50;99.90
65036;DHT22;51603;49.300;8.880;2022-07-29T03:35:34;19.40;99.90
65036;DHT22;51603;49.300;8.880;2022-07-29T03:38:00;19.40;99.90
65036;DHT22;51603;49.300;8.880;2022-07-29T03:40:30;19.40;99.90
65036;DHT22;51603;49.300;8.880;2022-07-29T03:42:57;19.40;99.90
65036;DHT22;51603;49.300;8.880;2022-07-29T03:45:25;19.40;99.90
65036;DHT22;51603;49.300;8.880;2022-07-29T03:47:56;19.40;99.90
65036;DHT22;51603;49.300;8.880;2022-07-29T03:50:23;19.40;99.90
65036;DHT22;51603;49.300;8.880;2022-07-29T03:52:49;19.30;99.90
65036;DHT22;51603;49.300;8.880;2022-07-29T03:55:15;19.30;99.90
65036;DHT22;51603;49.300;8.880;2022-07-29T03:57:40;19.30;99.90
65036;DHT22;51603;49.300;8.880;2022-07-29T04:00:08;19.30;99.90
65036;DHT22;51603;49.300;8.880;2022-07-29T04:02:34;19.30;99.90
65036;DHT22;51603;49.300;8.880;2022-07-29T04:05:00;19.20;99.90
65036;DHT22;51603;49.300;8.880;2022-07-29T04:07:26;19.20;99.90
65036;DHT22;51603;49.300;8.880;2022-07-29T04:09:52;19.20;99.90
65036;DHT22;51603;49.300;8.880;2022-07-29T04:12:17;19.20;99.90
65036;DHT22;51603;49.300;8.880;2022-07-29T04:14:42;19.10;99.90
65036;DHT22;51603;49.300;8.880;2022-07-29T04:17:08;19.10;99.90
65036;DHT22;51603;49.300;8.880;2022-07-29T04:19:34;19.00;99.90
65036;DHT22;51603;49.300;8.880;2022-07-29T04:22:00;19.00;99.90
65036;DHT22;51603;49.300;8.880;2022-07-29T04:24:26;19.00;99.90
65036;DHT22;51603;49.300;8.880;2022-07-29T04:26:52;19.00;99.90
65036;DHT22;51603;49.300;8.880;2022-07-29T04:29:18;19.00;99.90
65036;DHT22;51603;49.300;8.880;2022-07-29T04:31:44;19.00;99.90
65036;DHT22;51603;49.300;8.880;2022-07-29T04:34:11;19.00;99.90
65036;DHT22;51603;49.300;8.880;2022-07-29T04:36:36;18.90;99.90
65036;DHT22;51603;49.300;8.880;2022-07-29T04:39:02;18.90;99.90
65036;DHT22;51603;49.300;8.880;2022-07-29T04:41:28;18.90;99.90
65036;DHT22;51603;49.300;8.880;2022-07-29T04:43:54;18.90;99.90
65036;DHT22;51603;49.300;8.880;2022-07-29T04:46:19;18.90;99.90
65036;DHT22;51603;49.300;8.880;2022-07-29T04:48:45;18.90;99.90
65036;DHT22;51603;49.300;8.880;2022-07-29T04:51:12;18.80;99.90
65036;DHT22;51603;49.300;8.880;2022-07-29T04:53:37;18.80;99.90
65036;DHT22;51603;49.300;8.880;2022-07-29T04:56:03;18.80;99.90
65036;DHT22;51603;49.300;8.880;2022-07-29T04:58:29;18.90;99.90
65036;DHT22;51603;49.300;8.880;2022-07-29T05:00:54;18.90;99.90
65036;DHT22;51603;49.300;8.880;2022-07-29T05:03:20;18.90;99.90
65036;DHT22;51603;49.300;8.880;2022-07-29T05:05:45;19.00;99.90
65036;DHT22;51603;49.300;8.880;2022-07-29T05:08:11;19.00;99.90
65036;DHT22;51603;49.300;8.880;2022-07-29T05:10:36;19.10;99.90
65036;DHT22;51603;49.300;8.880;2022-07-29T05:13:06;19.10;99.90
65036;DHT22;51603;49.300;8.880;2022-07-29T05:15:33;19.20;99.90
65036;DHT22;51603;49.300;8.880;2022-07-29T05:18:00;19.20;99.90
65036;DHT22;51603;49.300;8.880;2022-07-29T05:20:25;19.20;99.90
65036;DHT22;51603;49.300;8.880;2022-07-29T05:22:56;19.20;99.90
65036;DHT22;51603;49.300;8.880;2022-07-29T05:25:22;19.30;99.90
65036;DHT22;51603;49.300;8.880;2022-07-29T05:27:47;19.30;99.90
65036;DHT22;51603;49.300;8.880;2022-07-29T05:30:13;19.30;99.90
65036;DHT22;51603;49.300;8.880;2022-07-29T05:32:38;19.30;99.90
65036;DHT22;51603;49.300;8.880;2022-07-29T05:35:04;19.30;99.90
65036;DHT22;51603;49.300;8.880;2022-07-29T05:37:30;19.30;99.90
65036;DHT22;51603;49.300;8.880;2022-07-29T05:39:56;19.30;99.90
65036;DHT22;51603;49.300;8.880;2022-07-29T05:42:21;19.40;99.90
65036;DHT22;51603;49.300;8.880;2022-07-29T05:44:47;19.50;99.90
65036;DHT22;51603;49.300;8.880;2022-07-29T05:47:12;19.60;99.90
65036;DHT22;51603;49.300;8.880;2022-07-29T05:49:38;19.70;99.90
65036;DHT22;51603;49.300;8.880;2022-07-29T05:52:04;19.80;99.90
65036;DHT22;51603;49.300;8.880;2022-07-29T05:54:29;19.90;99.90
65036;DHT22;51603;49.300;8.880;2022-07-29T05:56:55;19.90;98.90
65036;DHT22;51603;49.300;8.880;2022-07-29T05:59:21;20.00;98.80
65036;DHT22;51603;49.300;8.880;2022-07-29T06:01:46;20.10;98.40
65036;DHT22;51603;49.300;8.880;2022-07-29T06:04:12;20.10;98.90
65036;DHT22;51603;49.300;8.880;2022-07-29T06:06:38;20.30;97.70
65036;DHT22;51603;49.300;8.880;2022-07-29T06:09:03;20.30;97.10
65036;DHT22;51603;49.300;8.880;2022-07-29T06:11:29;20.40;97.20
65036;DHT22;51603;49.300;8.880;2022-07-29T06:13:55;20.50;97.60
65036;DHT22;51603;49.300;8.880;2022-07-29T06:16:20;20.60;97.60
65036;DHT22;51603;49.300;8.880;2022-07-29T06:18:46;20.70;97.00
65036;DHT22;51603;49.300;8.880;2022-07-29T06:21:11;20.80;96.50
65036;DHT22;51603;49.300;8.880;2022-07-29T06:23:38;20.80;96.60
65036;DHT22;51603;49.300;8.880;2022-07-29T06:26:04;20.90;97.50
65036;DHT22;51603;49.300;8.880;2022-07-29T06:28:30;21.00;97.90
65036;DHT22;51603;49.300;8.880;2022-07-29T06:30:55;21.00;98.20
65036;DHT22;51603;49.300;8.880;2022-07-29T06:33:21;21.00;97.80
65036;DHT22;51603;49.300;8.880;2022-07-29T06:35:46;21.10;97.80
65036;DHT22;51603;49.300;8.880;2022-07-29T06:38:13;21.20;98.20
65036;DHT22;51603;49.300;8.880;2022-07-29T06:40:42;21.20;97.90
65036;DHT22;51603;49.300;8.880;2022-07-29T06:43:47;21.30;97.90
65036;DHT22;51603;49.300;8.880;2022-07-29T06:46:16;21.30;98.00
65036;DHT22;51603;49.300;8.880;2022-07-29T06:48:46;21.40;98.60
65036;DHT22;51603;49.300;8.880;2022-07-29T06:51:13;21.50;97.90
65036;DHT22;51603;49.300;8.880;2022-07-29T06:53:39;21.60;97.80
65036;DHT22;51603;49.300;8.880;2022-07-29T06:56:06;21.70;97.80
65036;DHT22;51603;49.300;8.880;2022-07-29T06:58:34;21.80;98.20
65036;DHT22;51603;49.300;8.880;2022-07-29T07:01:05;22.00;98.00
65036;DHT22;51603;49.300;8.880;2022-07-29T07:03:31;22.20;98.40
65036;DHT22;51603;49.300;8.880;2022-07-29T07:05:57;22.30;99.20
65036;DHT22;51603;49.300;8.880;2022-07-29T07:08:23;22.50;99.70
65036;DHT22;51603;49.300;8.880;2022-07-29T07:10:49;22.60;99.90
65036;DHT22;51603;49.300;8.880;2022-07-29T07:13:15;22.50;99.90
65036;DHT22;51603;49.300;8.880;2022-07-29T07:15:43;22.50;99.90
65036;DHT22;51603;49.300;8.880;2022-07-29T07:18:09;22.40;99.90
65036;DHT22;51603;49.300;8.880;2022-07-29T07:20:35;22.30;99.90
65036;DHT22;51603;49.300;8.880;2022-07-29T07:23:01;22.20;99.90
65036;DHT22;51603;49.300;8.880;2022-07-29T07:25:27;22.30;99.90
65036;DHT22;51603;49.300;8.880;2022-07-29T07:27:53;22.30;99.90
65036;DHT22;51603;49.300;8.880;2022-07-29T07:30:18;22.30;99.90
65036;DHT22;51603;49.300;8.880;2022-07-29T07:32:44;22.40;99.90
65036;DHT22;51603;49.300;8.880;2022-07-29T07:35:10;22.40;99.90
65036;DHT22;51603;49.300;8.880;2022-07-29T07:37:36;22.40;99.90
65036;DHT22;51603;49.300;8.880;2022-07-29T07:40:02;22.50;99.90
65036;DHT22;51603;49.300;8.880;2022-07-29T07:42:28;22.60;99.90
65036;DHT22;51603;49.300;8.880;2022-07-29T07:44:54;22.70;99.90
65036;DHT22;51603;49.300;8.880;2022-07-29T07:47:19;22.70;99.90
65036;DHT22;51603;49.300;8.880;2022-07-29T07:49:48;22.90;99.90
65036;DHT22;51603;49.300;8.880;2022-07-29T07:52:15;23.00;99.90
65036;DHT22;51603;49.300;8.880;2022-07-29T07:54:41;23.10;99.30
65036;DHT22;51603;49.300;8.880;2022-07-29T07:57:08;23.20;99.60
65036;DHT22;51603;49.300;8.880;2022-07-29T07:59:34;23.20;99.00
65036;DHT22;51603;49.300;8.880;2022-07-29T08:01:59;23.10;98.40
65036;DHT22;51603;49.300;8.880;2022-07-29T08:04:26;23.20;99.00
65036;DHT22;51603;49.300;8.880;2022-07-29T08:06:51;23.30;99.40
65036;DHT22;51603;49.300;8.880;2022-07-29T08:09:22;23.50;98.60
65036;DHT22;51603;49.300;8.880;2022-07-29T08:11:47;23.50;97.80
65036;DHT22;51603;49.300;8.880;2022-07-29T08:14:13;23.30;97.60
65036;DHT22;51603;49.300;8.880;2022-07-29T08:16:40;23.20;98.20
65036;DHT22;51603;49.300;8.880;2022-07-29T08:19:06;23.40;98.30
65036;DHT22;51603;49.300;8.880;2022-07-29T08:21:31;23.50;98.40
65036;DHT22;51603;49.300;8.880;2022-07-29T08:23:57;23.60;97.90
65036;DHT22;51603;49.300;8.880;2022-07-29T08:26:42;23.80;98.10
65036;DHT22;51603;49.300;8.880;2022-07-29T08:29:08;23.90;97.90
65036;DHT22;51603;49.300;8.880;2022-07-29T08:31:35;24.00;97.10
65036;DHT22;51603;49.300;8.880;2022-07-29T08:34:01;24.10;96.80
65036;DHT22;51603;49.300;8.880;2022-07-29T08:36:28;24.20;96.20
65036;DHT22;51603;49.300;8.880;2022-07-29T08:38:53;24.30;95.40
65036;DHT22;51603;49.300;8.880;2022-07-29T08:41:20;24.50;95.80
65036;DHT22;51603;49.300;8.880;2022-07-29T08:43:47;24.50;95.60
65036;DHT22;51603;49.300;8.880;2022-07-29T08:46:12;24.60;95.20
65036;DHT22;51603;49.300;8.880;2022-07-29T08:48:39;24.70;95.10
65036;DHT22;51603;49.300;8.880;2022-07-29T08:51:06;24.80;94.60
65036;DHT22;51603;49.300;8.880;2022-07-29T08:53:33;25.00;94.70
65036;DHT22;51603;49.300;8.880;2022-07-29T08:55:59;25.00;94.30
65036;DHT22;51603;49.300;8.880;2022-07-29T08:58:25;25.10;94.50
65036;DHT22;51603;49.300;8.880;2022-07-29T09:00:54;25.20;93.80
65036;DHT22;51603;49.300;8.880;2022-07-29T09:03:22;25.10;94.00
65036;DHT22;51603;49.300;8.880;2022-07-29T09:05:49;25.10;94.30
65036;DHT22;51603;49.300;8.880;2022-07-29T09:08:16;25.00;94.30
65036;DHT22;51603;49.300;8.880;2022-07-29T09:10:42;24.90;93.80
65036;DHT22;51603;49.300;8.880;2022-07-29T09:13:08;24.90;94.30
65036;DHT22;51603;49.300;8.880;2022-07-29T09:15:33;25.00;94.40
65036;DHT22;51603;49.300;8.880;2022-07-29T09:17:59;25.20;94.30
65036;DHT22;51603;49.300;8.880;2022-07-29T09:20:26;25.40;93.80
65036;DHT22;51603;49.300;8.880;2022-07-29T09:23:12;25.40;93.70
65036;DHT22;51603;49.300;8.880;2022-07-29T09:25:40;25.50;93.70
65036;DHT22;51603;49.300;8.880;2022-07-29T09:28:14;25.60;93.80
65036;DHT22;51603;49.300;8.880;2022-07-29T09:30:56;25.80;93.50
65036;DHT22;51603;49.300;8.880;2022-07-29T09:33:23;25.90;92.60
65036;DHT22;51603;49.300;8.880;2022-07-29T09:36:06;25.90;91.60
65036;DHT22;51603;49.300;8.880;2022-07-29T09:38:33;26.00;92.60
65036;DHT22;51603;49.300;8.880;2022-07-29T09:41:00;26.10;92.40
65036;DHT22;51603;49.300;8.880;2022-07-29T09:43:26;26.10;91.80
65036;DHT22;51603;49.300;8.880;2022-07-29T09:45:52;25.70;91.80
65036;DHT22;51603;49.300;8.880;2022-07-29T09:48:23;25.60;91.80
65036;DHT22;51603;49.300;8.880;2022-07-29T09:50:49;25.60;92.00
65036;DHT22;51603;49.300;8.880;2022-07-29T09:53:37;25.40;92.30
65036;DHT22;51603;49.300;8.880;2022-07-29T09:56:04;25.50;92.40
65036;DHT22;51603;49.300;8.880;2022-07-29T09:58:30;25.60;92.70
65036;DHT22;51603;49.300;8.880;2022-07-29T10:00:58;25.70;92.70
65036;DHT22;51603;49.300;8.880;2022-07-29T10:03:24;26.00;91.30
65036;DHT22;51603;49.300;8.880;2022-07-29T10:08:30;26.10;89.80
65036;DHT22;51603;49.300;8.880;2022-07-29T10:11:10;26.20;89.00
65036;DHT22;51603;49.300;8.880;2022-07-29T10:13:36;26.50;88.90
65036;DHT22;51603;49.300;8.880;2022-07-29T10:16:02;26.60;88.90
65036;DHT22;51603;49.300;8.880;2022-07-29T10:18:28;26.70;87.00
65036;DHT22;51603;49.300;8.880;2022-07-29T10:20:54;27.00;85.10
65036;DHT22;51603;49.300;8.880;2022-07-29T10:23:21;27.10;84.30
65036;DHT22;51603;49.300;8.880;2022-07-29T10:25:46;27.20;84.00
65036;DHT22;51603;49.300;8.880;2022-07-29T10:28:12;27.20;82.40
65036;DHT22;51603;49.300;8.880;2022-07-29T10:30:39;27.10;81.40
65036;DHT22;51603;49.300;8.880;2022-07-29T10:41:56;27.20;81.40
65036;DHT22;51603;49.300;8.880;2022-07-29T10:44:25;27.30;83.10
65036;DHT22;51603;49.300;8.880;2022-07-29T10:46:52;27.40;80.30
65036;DHT22;51603;49.300;8.880;2022-07-29T11:07:23;28.20;73.50
65036;DHT22;51603;49.300;8.880;2022-07-29T11:10:20;28.40;70.60
65036;DHT22;51603;49.300;8.880;2022-07-29T11:12:46;28.30;69.40
65036;DHT22;51603;49.300;8.880;2022-07-29T11:15:22;28.20;68.70
65036;DHT22;51603;49.300;8.880;2022-07-29T11:20:44;28.20;66.50
65036;DHT22;51603;49.300;8.880;2022-07-29T11:23:27;28.50;69.20
65036;DHT22;51603;49.300;8.880;2022-07-29T11:28:59;28.90;63.40
65036;DHT22;51603;49.300;8.880;2022-07-29T11:31:46;29.00;63.20
65036;DHT22;51603;49.300;8.880;2022-07-29T11:34:26;28.90;62.40
65036;DHT22;51603;49.300;8.880;2022-07-29T11:40:25;29.00;62.30
65036;DHT22;51603;49.300;8.880;2022-07-29T11:45:01;29.60;67.20
65036;DHT22;51603;49.300;8.880;2022-07-29T11:47:30;29.70;60.90
65036;DHT22;51603;49.300;8.880;2022-07-29T11:49:57;30.00;63.30
65036;DHT22;51603;49.300;8.880;2022-07-29T11:52:23;30.30;61.70
65036;DHT22;51603;49.300;8.880;2022-07-29T11:54:49;30.40;59.30
65036;DHT22;51603;49.300;8.880;2022-07-29T11:57:19;30.00;58.00
65036;DHT22;51603;49.300;8.880;2022-07-29T11:59:46;29.80;58.70
65036;DHT22;51603;49.300;8.880;2022-07-29T12:02:13;30.00;58.40
65036;DHT22;51603;49.300;8.880;2022-07-29T12:04:51;30.00;57.10
65036;DHT22;51603;49.300;8.880;2022-07-29T12:07:18;29.80;56.40
65036;DHT22;51603;49.300;8.880;2022-07-29T12:09:51;30.10;56.60
65036;DHT22;51603;49.300;8.880;2022-07-29T12:12:17;30.00;55.60
65036;DHT22;51603;49.300;8.880;2022-07-29T12:14:43;30.10;56.40
65036;DHT22;51603;49.300;8.880;2022-07-29T12:17:32;30.20;55.50
65036;DHT22;51603;49.300;8.880;2022-07-29T12:20:00;30.20;53.60
65036;DHT22;51603;49.300;8.880;2022-07-29T12:22:36;30.20;53.00
65036;DHT22;51603;49.300;8.880;2022-07-29T12:25:07;30.10;53.40
65036;DHT22;51603;49.300;8.880;2022-07-29T12:27:34;29.80;53.00
65036;DHT22;51603;49.300;8.880;2022-07-29T12:30:03;29.80;53.60
65036;DHT22;51603;49.300;8.880;2022-07-29T12:32:46;29.30;54.70
65036;DHT22;51603;49.300;8.880;2022-07-29T12:35:14;29.00;55.30
65036;DHT22;51603;49.300;8.880;2022-07-29T12:37:42;28.70;56.00
65036;DHT22;51603;49.300;8.880;2022-07-29T12:40:10;28.40;57.10
65036;DHT22;51603;49.300;8.880;2022-07-29T12:42:36;28.40;56.20
65036;DHT22;51603;49.300;8.880;2022-07-29T12:45:03;28.40;54.20
65036;DHT22;51603;49.300;8.880;2022-07-29T12:47:29;28.50;55.10
65036;DHT22;51603;49.300;8.880;2022-07-29T12:50:09;28.50;54.10
65036;DHT22;51603;49.300;8.880;2022-07-29T12:52:36;28.40;53.80
65036;DHT22;51603;49.300;8.880;2022-07-29T12:55:02;28.40;53.20
65036;DHT22;51603;49.300;8.880;2022-07-29T12:57:28;28.50;52.80
65036;DHT22;51603;49.300;8.880;2022-07-29T13:00:11;28.60;53.40
65036;DHT22;51603;49.300;8.880;2022-07-29T13:02:38;28.80;52.70
65036;DHT22;51603;49.300;8.880;2022-07-29T13:05:05;28.80;52.10
65036;DHT22;51603;49.300;8.880;2022-07-29T13:07:32;28.70;52.00
65036;DHT22;51603;49.300;8.880;2022-07-29T13:10:17;28.60;51.30
65036;DHT22;51603;49.300;8.880;2022-07-29T13:13:06;28.70;51.20
65036;DHT22;51603;49.300;8.880;2022-07-29T13:15:33;28.70;52.10
65036;DHT22;51603;49.300;8.880;2022-07-29T13:17:59;28.70;53.20
65036;DHT22;51603;49.300;8.880;2022-07-29T13:20:26;28.80;51.80
65036;DHT22;51603;49.300;8.880;2022-07-29T13:22:58;28.90;51.50
65036;DHT22;51603;49.300;8.880;2022-07-29T13:25:29;29.20;51.90
65036;DHT22;51603;49.300;8.880;2022-07-29T13:27:55;29.30;50.20
65036;DHT22;51603;49.300;8.880;2022-07-29T13:30:22;29.10;50.30
65036;DHT22;51603;49.300;8.880;2022-07-29T13:32:48;29.00;49.60
65036;DHT22;51603;49.300;8.880;2022-07-29T13:35:14;29.00;50.10
65036;DHT22;51603;49.300;8.880;2022-07-29T13:37:39;29.00;50.70
65036;DHT22;51603;49.300;8.880;2022-07-29T13:40:09;28.90;51.20
65036;DHT22;51603;49.300;8.880;2022-07-29T13:42:35;28.70;51.00
65036;DHT22;51603;49.300;8.880;2022-07-29T13:45:01;28.70;50.60
65036;DHT22;51603;49.300;8.880;2022-07-29T13:47:27;28.60;51.70
65036;DHT22;51603;49.300;8.880;2022-07-29T13:49:54;28.50;50.60
65036;DHT22;51603;49.300;8.880;2022-07-29T13:52:20;28.60;51.10
65036;DHT22;51603;49.300;8.880;2022-07-29T13:54:45;28.60;50.40
65036;DHT22;51603;49.300;8.880;2022-07-29T13:57:12;28.40;51.20
65036;DHT22;51603;49.300;8.880;2022-07-29T13:59:38;28.40;51.20
65036;DHT22;51603;49.300;8.880;2022-07-29T14:02:04;28.20;51.50
65036;DHT22;51603;49.300;8.880;2022-07-29T14:04:31;28.20;51.70
65036;DHT22;51603;49.300;8.880;2022-07-29T14:06:56;28.10;52.00
65036;DHT22;51603;49.300;8.880;2022-07-29T14:09:22;28.20;52.40
65036;DHT22;51603;49.300;8.880;2022-07-29T14:11:47;28.10;52.60
65036;DHT22;51603;49.300;8.880;2022-07-29T14:14:15;28.20;52.90
65036;DHT22;51603;49.300;8.880;2022-07-29T14:16:40;28.20;52.80
65036;DHT22;51603;49.300;8.880;2022-07-29T14:19:06;28.20;52.80
65036;DHT22;51603;49.300;8.880;2022-07-29T14:21:32;28.10;52.90
65036;DHT22;51603;49.300;8.880;2022-07-29T14:23:57;28.10;52.90
65036;DHT22;51603;49.300;8.880;2022-07-29T14:26:23;28.10;53.00
65036;DHT22;51603;49.300;8.880;2022-07-29T14:28:49;28.20;53.80
65036;DHT22;51603;49.300;8.880;2022-07-29T14:31:15;28.30;54.10
65036;DHT22;51603;49.300;8.880;2022-07-29T14:33:41;28.20;53.40
65036;DHT22;51603;49.300;8.880;2022-07-29T14:36:06;28.30;53.50
65036;DHT22;51603;49.300;8.880;2022-07-29T14:38:32;28.20;53.00
65036;DHT22;51603;49.300;8.880;2022-07-29T14:40:57;28.10;52.70
65036;DHT22;51603;49.300;8.880;2022-07-29T14:43:23;28.20;52.80
65036;DHT22;51603;49.300;8.880;2022-07-29T14:45:48;28.30;52.20
65036;DHT22;51603;49.300;8.880;2022-07-29T14:48:14;28.50;52.60
65036;DHT22;51603;49.300;8.880;2022-07-29T14:50:39;28.60;51.80
65036;DHT22;51603;49.300;8.880;2022-07-29T14:53:05;28.70;51.10
65036;DHT22;51603;49.300;8.880;2022-07-29T14:55:31;28.60;50.80
65036;DHT22;51603;49.300;8.880;2022-07-29T14:57:56;28.50;50.50
65036;DHT22;51603;49.300;8.880;2022-07-29T15:00:22;28.50;51.00
65036;DHT22;51603;49.300;8.880;2022-07-29T15:02:48;28.40;49.90
65036;DHT22;51603;49.300;8.880;2022-07-29T15:05:14;28.30;49.90
65036;DHT22;51603;49.300;8.880;2022-07-29T15:07:39;28.30;51.20
65036;DHT22;51603;49.300;8.880;2022-07-29T15:10:05;28.30;51.20
65036;DHT22;51603;49.300;8.880;2022-07-29T15:12:31;28.30;51.40
65036;DHT22;51603;49.300;8.880;2022-07-29T15:14:57;28.20;51.20
65036;DHT22;51603;49.300;8.880;2022-07-29T15:17:22;28.10;50.60
65036;DHT22;51603;49.300;8.880;2022-07-29T15:19:48;28.20;50.70
65036;DHT22;51603;49.300;8.880;2022-07-29T15:22:14;28.20;50.00
65036;DHT22;51603;49.300;8.880;2022-07-29T15:24:39;28.10;50.30
65036;DHT22;51603;49.300;8.880;2022-07-29T15:27:05;28.00;49.00
65036;DHT22;51603;49.300;8.880;2022-07-29T15:29:30;28.10;50.30
65036;DHT22;51603;49.300;8.880;2022-07-29T15:31:56;28.00;50.10
65036;DHT22;51603;49.300;8.880;2022-07-29T15:34:21;28.00;50.60
65036;DHT22;51603;49.300;8.880;2022-07-29T15:36:49;28.00;49.10
65036;DHT22;51603;49.300;8.880;2022-07-29T15:39:15;28.00;49.50
65036;DHT22;51603;49.300;8.880;2022-07-29T15:41:41;27.90;49.90
65036;DHT22;51603;49.300;8.880;2022-07-29T15:44:07;27.80;50.00
65036;DHT22;51603;49.300;8.880;2022-07-29T15:46:32;27.90;50.50
65036;DHT22;51603;49.300;8.880;2022-07-29T15:49:16;27.80;48.70
65036;DHT22;51603;49.300;8.880;2022-07-29T15:51:42;27.90;49.40
65036;DHT22;51603;49.300;8.880;2022-07-29T15:54:07;27.90;49.30
65036;DHT22;51603;49.300;8.880;2022-07-29T15:56:33;27.90;48.50
65036;DHT22;51603;49.300;8.880;2022-07-29T15:58:59;27.90;48.00
65036;DHT22;51603;49.300;8.880;2022-07-29T16:01:24;27.90;47.70
65036;DHT22;51603;49.300;8.880;2022-07-29T16:03:51;27.80;48.70
65036;DHT22;51603;49.300;8.880;2022-07-29T16:06:16;27.80;48.90
65036;DHT22;51603;49.300;8.880;2022-07-29T16:08:42;27.70;48.70
65036;DHT22;51603;49.300;8.880;2022-07-29T16:11:07;27.70;48.40
65036;DHT22;51603;49.300;8.880;2022-07-29T16:13:33;27.70;48.50
65036;DHT22;51603;49.300;8.880;2022-07-29T16:15:58;27.70;47.70
65036;DHT22;51603;49.300;8.880;2022-07-29T16:18:24;27.60;47.80
65036;DHT22;51603;49.300;8.880;2022-07-29T16:20:49;27.50;47.50
65036;DHT22;51603;49.300;8.880;2022-07-29T16:23:15;27.60;47.40